sensor_id;sensor_type;location;lat;lon;timestamp;temperature;humidity
67586;SHT31;55785;47.946;20.540;2024-03-02T00:00:51;9.85;80.39
67586;SHT31;55785;47.946;20.540;2024-03-02T00:03:17;9.82;80.45
67586;SHT31;55785;47.946;20.540;2024-03-02T00:05:43;9.78;80.35
67586;SHT31;55785;47.946;20.540;2024-03-02T00:08:09;9.81;80.07
67586;SHT31;55785;47.946;20.540;2024-03-02T00:10:38;9.85;80.04
67586;SHT31;55785;47.946;20.540;2024-03-02T00:13:04;9.88;79.88
67586;SHT31;55785;47.946;20.540;2024-03-02T00:15:49;9.82;80.01
67586;SHT31;55785;47.946;20.540;2024-03-02T00:18:24;9.81;80.16
67586;SHT31;55785;47.946;20.540;2024-03-02T00:20:53;9.82;80.26
67586;SHT31;55785;47.946;20.540;2024-03-02T00:23:20;9.82;80.05
67586;SHT31;55785;47.946;20.540;2024-03-02T00:25:51;9.82;80.09
67586;SHT31;55785;47.946;20.540;2024-03-02T00:28:19;9.81;80.19
67586;SHT31;55785;47.946;20.540;2024-03-02T00:30:55;9.84;80.67
67586;SHT31;55785;47.946;20.540;2024-03-02T00:33:21;9.88;80.20
67586;SHT31;55785;47.946;20.540;2024-03-02T00:35:48;9.88;80.52
67586;SHT31;55785;47.946;20.540;2024-03-02T00:38:14;9.82;80.55
67586;SHT31;55785;47.946;20.540;2024-03-02T00:40:40;9.78;80.96
67586;SHT31;55785;47.946;20.540;2024-03-02T00:43:05;9.74;80.76
67586;SHT31;55785;47.946;20.540;2024-03-02T00:45:30;9.75;80.52
67586;SHT31;55785;47.946;20.540;2024-03-02T00:47:56;9.74;80.70
67586;SHT31;55785;47.946;20.540;2024-03-02T00:50:22;9.65;80.90
67586;SHT31;55785;47.946;20.540;2024-03-02T00:52:47;9.63;80.77
67586;SHT31;55785;47.946;20.540;2024-03-02T00:55:13;9.64;80.95
67586;SHT31;55785;47.946;20.540;2024-03-02T00:57:38;9.63;80.90
67586;SHT31;55785;47.946;20.540;2024-03-02T01:00:04;9.61;80.85
67586;SHT31;55785;47.946;20.540;2024-03-02T01:02:29;9.60;80.92
67586;SHT31;55785;47.946;20.540;2024-03-02T01:04:55;9.63;80.87
67586;SHT31;55785;47.946;20.540;2024-03-02T01:07:20;9.64;80.97
67586;SHT31;55785;47.946;20.540;2024-03-02T01:09:45;9.70;80.88
67586;SHT31;55785;47.946;20.540;2024-03-02T01:12:11;9.67;80.86
67586;SHT31;55785;47.946;20.540;2024-03-02T01:14:36;9.64;80.96
67586;SHT31;55785;47.946;20.540;2024-03-02T01:17:01;9.65;80.93
67586;SHT31;55785;47.946;20.540;2024-03-02T01:19:27;9.64;81.02
67586;SHT31;55785;47.946;20.540;2024-03-02T01:21:52;9.61;81.44
67586;SHT31;55785;47.946;20.540;2024-03-02T01:24:17;9.63;81.44
67586;SHT31;55785;47.946;20.540;2024-03-02T01:26:43;9.58;81.24
67586;SHT31;55785;47.946;20.540;2024-03-02T01:29:08;9.54;81.49
67586;SHT31;55785;47.946;20.540;2024-03-02T01:31:33;9.47;81.74
67586;SHT31;55785;47.946;20.540;2024-03-02T01:33:59;9.44;81.63
67586;SHT31;55785;47.946;20.540;2024-03-02T01:36:24;9.39;81.64
67586;SHT31;55785;47.946;20.540;2024-03-02T01:38:49;9.48;81.72
67586;SHT31;55785;47.946;20.540;2024-03-02T01:41:15;9.50;81.91
67586;SHT31;55785;47.946;20.540;2024-03-02T01:43:40;9.51;81.53
67586;SHT31;55785;47.946;20.540;2024-03-02T01:46:06;9.48;81.07
67586;SHT31;55785;47.946;20.540;2024-03-02T01:48:31;9.53;81.00
67586;SHT31;55785;47.946;20.540;2024-03-02T01:50:56;9.51;81.01
67586;SHT31;55785;47.946;20.540;2024-03-02T01:53:22;9.46;81.16
67586;SHT31;55785;47.946;20.540;2024-03-02T01:55:47;9.44;81.34
67586;SHT31;55785;47.946;20.540;2024-03-02T01:58:13;9.43;81.64
67586;SHT31;55785;47.946;20.540;2024-03-02T02:00:38;9.37;81.95
67586;SHT31;55785;47.946;20.540;2024-03-02T02:03:03;9.37;82.09
67586;SHT31;55785;47.946;20.540;2024-03-02T02:05:29;9.34;82.20
67586;SHT31;55785;47.946;20.540;2024-03-02T02:07:55;9.33;82.06
67586;SHT31;55785;47.946;20.540;2024-03-02T02:10:20;9.40;82.52
67586;SHT31;55785;47.946;20.540;2024-03-02T02:12:46;9.46;82.27
67586;SHT31;55785;47.946;20.540;2024-03-02T02:15:24;9.42;82.01
67586;SHT31;55785;47.946;20.540;2024-03-02T02:17:50;9.34;82.24
67586;SHT31;55785;47.946;20.540;2024-03-02T02:20:15;9.26;82.45
67586;SHT31;55785;47.946;20.540;2024-03-02T02:22:55;9.18;82.98
67586;SHT31;55785;47.946;20.540;2024-03-02T02:25:21;9.22;83.00
67586;SHT31;55785;47.946;20.540;2024-03-02T02:27:46;9.22;82.75
67586;SHT31;55785;47.946;20.540;2024-03-02T02:30:12;9.19;82.73
67586;SHT31;55785;47.946;20.540;2024-03-02T02:32:37;9.19;82.74
67586;SHT31;55785;47.946;20.540;2024-03-02T02:35:03;9.16;82.73
67586;SHT31;55785;47.946;20.540;2024-03-02T02:37:28;9.23;82.67
67586;SHT31;55785;47.946;20.540;2024-03-02T02:39:53;9.26;82.50
67586;SHT31;55785;47.946;20.540;2024-03-02T02:42:19;9.30;82.60
67586;SHT31;55785;47.946;20.540;2024-03-02T02:44:44;9.27;82.45
67586;SHT31;55785;47.946;20.540;2024-03-02T02:47:09;9.32;82.32
67586;SHT31;55785;47.946;20.540;2024-03-02T02:49:35;9.33;82.22
67586;SHT31;55785;47.946;20.540;2024-03-02T02:52:00;9.33;82.19
67586;SHT31;55785;47.946;20.540;2024-03-02T02:54:25;9.34;82.18
67586;SHT31;55785;47.946;20.540;2024-03-02T02:56:51;9.37;82.38
67586;SHT31;55785;47.946;20.540;2024-03-02T02:59:16;9.36;82.24
67586;SHT31;55785;47.946;20.540;2024-03-02T03:01:41;9.37;82.50
67586;SHT31;55785;47.946;20.540;2024-03-02T03:04:07;9.32;82.62
67586;SHT31;55785;47.946;20.540;2024-03-02T03:06:32;9.29;82.67
67586;SHT31;55785;47.946;20.540;2024-03-02T03:08:57;9.16;82.90
67586;SHT31;55785;47.946;20.540;2024-03-02T03:11:23;9.12;82.92
67586;SHT31;55785;47.946;20.540;2024-03-02T03:13:48;9.09;83.12
67586;SHT31;55785;47.946;20.540;2024-03-02T03:16:13;9.09;83.10
67586;SHT31;55785;47.946;20.540;2024-03-02T03:18:39;9.08;83.47
67586;SHT31;55785;47.946;20.540;2024-03-02T03:21:04;9.09;83.30
67586;SHT31;55785;47.946;20.540;2024-03-02T03:23:29;9.09;83.31
67586;SHT31;55785;47.946;20.540;2024-03-02T03:25:54;9.11;83.11
67586;SHT31;55785;47.946;20.540;2024-03-02T03:28:20;9.12;83.21
67586;SHT31;55785;47.946;20.540;2024-03-02T03:30:45;9.08;83.19
67586;SHT31;55785;47.946;20.540;2024-03-02T03:33:10;9.05;83.42
67586;SHT31;55785;47.946;20.540;2024-03-02T03:35:36;8.99;83.58
67586;SHT31;55785;47.946;20.540;2024-03-02T03:38:01;9.04;83.45
67586;SHT31;55785;47.946;20.540;2024-03-02T03:40:27;9.06;83.28
67586;SHT31;55785;47.946;20.540;2024-03-02T03:42:52;9.12;83.15
67586;SHT31;55785;47.946;20.540;2024-03-02T03:45:18;9.09;83.06
67586;SHT31;55785;47.946;20.540;2024-03-02T03:47:45;9.05;83.16
67586;SHT31;55785;47.946;20.540;2024-03-02T03:50:11;9.05;83.13
67586;SHT31;55785;47.946;20.540;2024-03-02T03:52:36;9.12;83.07
67586;SHT31;55785;47.946;20.540;2024-03-02T03:55:01;9.09;83.23
67586;SHT31;55785;47.946;20.540;2024-03-02T03:57:27;9.15;83.14
67586;SHT31;55785;47.946;20.540;2024-03-02T03:59:53;9.16;82.86
67586;SHT31;55785;47.946;20.540;2024-03-02T04:02:18;9.15;82.98
67586;SHT31;55785;47.946;20.540;2024-03-02T04:04:43;9.20;83.21
67586;SHT31;55785;47.946;20.540;2024-03-02T04:07:09;9.19;83.16
67586;SHT31;55785;47.946;20.540;2024-03-02T04:09:34;9.18;82.88
67586;SHT31;55785;47.946;20.540;2024-03-02T04:11:59;9.13;83.28
67586;SHT31;55785;47.946;20.540;2024-03-02T04:14:25;9.05;83.85
67586;SHT31;55785;47.946;20.540;2024-03-02T04:16:50;8.99;84.09
67586;SHT31;55785;47.946;20.540;2024-03-02T04:19:15;8.98;83.99
67586;SHT31;55785;47.946;20.540;2024-03-02T04:21:41;8.96;84.21
67586;SHT31;55785;47.946;20.540;2024-03-02T04:24:06;8.92;84.45
67586;SHT31;55785;47.946;20.540;2024-03-02T04:26:31;8.88;84.59
67586;SHT31;55785;47.946;20.540;2024-03-02T04:28:57;8.92;84.42
67586;SHT31;55785;47.946;20.540;2024-03-02T04:31:22;8.92;84.33
67586;SHT31;55785;47.946;20.540;2024-03-02T04:33:47;8.98;84.26
67586;SHT31;55785;47.946;20.540;2024-03-02T04:36:13;9.01;84.33
67586;SHT31;55785;47.946;20.540;2024-03-02T04:38:38;9.01;84.94
67586;SHT31;55785;47.946;20.540;2024-03-02T04:41:07;9.04;85.03
67586;SHT31;55785;47.946;20.540;2024-03-02T04:43:33;9.04;84.85
67586;SHT31;55785;47.946;20.540;2024-03-02T04:45:59;9.08;85.35
67586;SHT31;55785;47.946;20.540;2024-03-02T04:48:25;9.08;85.12
67586;SHT31;55785;47.946;20.540;2024-03-02T04:50:50;8.98;85.28
67586;SHT31;55785;47.946;20.540;2024-03-02T04:53:16;8.92;86.09
67586;SHT31;55785;47.946;20.540;2024-03-02T04:55:41;8.78;86.21
67586;SHT31;55785;47.946;20.540;2024-03-02T04:58:06;8.78;86.74
67586;SHT31;55785;47.946;20.540;2024-03-02T05:00:32;8.67;87.00
67586;SHT31;55785;47.946;20.540;2024-03-02T05:02:58;8.63;87.14
67586;SHT31;55785;47.946;20.540;2024-03-02T05:05:23;8.63;87.17
67586;SHT31;55785;47.946;20.540;2024-03-02T05:07:49;8.61;87.27
67586;SHT31;55785;47.946;20.540;2024-03-02T05:10:14;8.58;87.14
67586;SHT31;55785;47.946;20.540;2024-03-02T05:12:40;8.63;87.09
67586;SHT31;55785;47.946;20.540;2024-03-02T05:15:06;8.68;87.34
67586;SHT31;55785;47.946;20.540;2024-03-02T05:17:31;8.76;87.15
67586;SHT31;55785;47.946;20.540;2024-03-02T05:19:56;8.82;86.89
67586;SHT31;55785;47.946;20.540;2024-03-02T05:22:22;8.88;86.84
67586;SHT31;55785;47.946;20.540;2024-03-02T05:24:47;8.84;87.19
67586;SHT31;55785;47.946;20.540;2024-03-02T05:27:12;8.84;87.22
67586;SHT31;55785;47.946;20.540;2024-03-02T05:29:38;8.82;87.27
67586;SHT31;55785;47.946;20.540;2024-03-02T05:32:03;8.76;87.29
67586;SHT31;55785;47.946;20.540;2024-03-02T05:34:29;8.76;87.54
67586;SHT31;55785;47.946;20.540;2024-03-02T05:36:54;8.74;87.99
67586;SHT31;55785;47.946;20.540;2024-03-02T05:39:19;8.72;88.37
67586;SHT31;55785;47.946;20.540;2024-03-02T05:41:45;8.71;88.16
67586;SHT31;55785;47.946;20.540;2024-03-02T05:44:10;8.61;88.29
67586;SHT31;55785;47.946;20.540;2024-03-02T05:46:35;8.63;88.28
67586;SHT31;55785;47.946;20.540;2024-03-02T05:49:01;8.63;88.50
67586;SHT31;55785;47.946;20.540;2024-03-02T05:51:26;8.61;88.62
67586;SHT31;55785;47.946;20.540;2024-03-02T05:53:51;8.55;88.85
67586;SHT31;55785;47.946;20.540;2024-03-02T05:56:17;8.58;88.92
67586;SHT31;55785;47.946;20.540;2024-03-02T05:58:42;8.48;89.06
67586;SHT31;55785;47.946;20.540;2024-03-02T06:01:09;8.46;89.31
67586;SHT31;55785;47.946;20.540;2024-03-02T06:03:34;8.50;89.36
67586;SHT31;55785;47.946;20.540;2024-03-02T06:05:59;8.54;89.13
67586;SHT31;55785;47.946;20.540;2024-03-02T06:08:25;8.55;89.10
67586;SHT31;55785;47.946;20.540;2024-03-02T06:10:50;8.55;89.27
67586;SHT31;55785;47.946;20.540;2024-03-02T06:13:15;8.54;89.55
67586;SHT31;55785;47.946;20.540;2024-03-02T06:15:41;8.55;89.64
67586;SHT31;55785;47.946;20.540;2024-03-02T06:18:06;8.54;89.68
67586;SHT31;55785;47.946;20.540;2024-03-02T06:20:31;8.61;89.77
67586;SHT31;55785;47.946;20.540;2024-03-02T06:22:57;8.63;89.67
67586;SHT31;55785;47.946;20.540;2024-03-02T06:25:22;8.63;89.68
67586;SHT31;55785;47.946;20.540;2024-03-02T06:27:47;8.65;89.69
67586;SHT31;55785;47.946;20.540;2024-03-02T06:30:13;8.63;89.87
67586;SHT31;55785;47.946;20.540;2024-03-02T06:32:38;8.69;89.88
67586;SHT31;55785;47.946;20.540;2024-03-02T06:35:04;8.72;89.79
67586;SHT31;55785;47.946;20.540;2024-03-02T06:37:30;8.72;89.79
67586;SHT31;55785;47.946;20.540;2024-03-02T06:39:55;8.74;89.87
67586;SHT31;55785;47.946;20.540;2024-03-02T06:42:20;8.76;90.04
67586;SHT31;55785;47.946;20.540;2024-03-02T06:44:46;8.74;90.11
67586;SHT31;55785;47.946;20.540;2024-03-02T06:47:11;8.74;90.15
67586;SHT31;55785;47.946;20.540;2024-03-02T06:49:36;8.74;90.27
67586;SHT31;55785;47.946;20.540;2024-03-02T06:52:02;8.69;90.31
67586;SHT31;55785;47.946;20.540;2024-03-02T06:54:27;8.71;90.36
67586;SHT31;55785;47.946;20.540;2024-03-02T06:56:52;8.64;90.47
67586;SHT31;55785;47.946;20.540;2024-03-02T06:59:18;8.61;90.66
67586;SHT31;55785;47.946;20.540;2024-03-02T07:01:43;8.65;90.85
67586;SHT31;55785;47.946;20.540;2024-03-02T07:04:08;8.64;90.93
67586;SHT31;55785;47.946;20.540;2024-03-02T07:06:34;8.68;91.02
67586;SHT31;55785;47.946;20.540;2024-03-02T07:08:59;8.69;91.19
67586;SHT31;55785;47.946;20.540;2024-03-02T07:11:24;8.74;91.07
67586;SHT31;55785;47.946;20.540;2024-03-02T07:13:50;8.78;91.06
67586;SHT31;55785;47.946;20.540;2024-03-02T07:16:15;8.78;91.11
67586;SHT31;55785;47.946;20.540;2024-03-02T07:18:40;8.76;91.14
67586;SHT31;55785;47.946;20.540;2024-03-02T07:21:06;8.81;91.23
67586;SHT31;55785;47.946;20.540;2024-03-02T07:23:32;8.81;91.27
67586;SHT31;55785;47.946;20.540;2024-03-02T07:25:57;8.85;91.28
67586;SHT31;55785;47.946;20.540;2024-03-02T07:28:23;8.92;91.35
67586;SHT31;55785;47.946;20.540;2024-03-02T07:31:01;9.08;91.49
67586;SHT31;55785;47.946;20.540;2024-03-02T07:33:26;9.13;91.44
67586;SHT31;55785;47.946;20.540;2024-03-02T07:35:53;9.20;91.49
67586;SHT31;55785;47.946;20.540;2024-03-02T07:38:19;9.16;91.50
67586;SHT31;55785;47.946;20.540;2024-03-02T07:40:44;9.19;91.47
67586;SHT31;55785;47.946;20.540;2024-03-02T07:43:10;9.19;91.32
67586;SHT31;55785;47.946;20.540;2024-03-02T07:45:35;9.22;91.33
67586;SHT31;55785;47.946;20.540;2024-03-02T07:48:01;9.29;91.43
67586;SHT31;55785;47.946;20.540;2024-03-02T07:50:26;9.30;91.11
67586;SHT31;55785;47.946;20.540;2024-03-02T07:52:51;9.33;91.20
67586;SHT31;55785;47.946;20.540;2024-03-02T07:55:17;9.37;91.27
67586;SHT31;55785;47.946;20.540;2024-03-02T07:57:42;9.43;91.27
67586;SHT31;55785;47.946;20.540;2024-03-02T08:00:08;9.50;91.19
67586;SHT31;55785;47.946;20.540;2024-03-02T08:02:33;9.53;91.09
67586;SHT31;55785;47.946;20.540;2024-03-02T08:04:59;9.57;91.12
67586;SHT31;55785;47.946;20.540;2024-03-02T08:07:24;9.69;90.86
67586;SHT31;55785;47.946;20.540;2024-03-02T08:09:49;9.73;90.71
67586;SHT31;55785;47.946;20.540;2024-03-02T08:12:15;9.78;90.38
67586;SHT31;55785;47.946;20.540;2024-03-02T08:14:40;9.74;90.25
67586;SHT31;55785;47.946;20.540;2024-03-02T08:17:05;9.87;90.43
67586;SHT31;55785;47.946;20.540;2024-03-02T08:19:31;9.91;90.46
67586;SHT31;55785;47.946;20.540;2024-03-02T08:21:57;9.77;89.77
67586;SHT31;55785;47.946;20.540;2024-03-02T08:24:22;9.81;89.99
67586;SHT31;55785;47.946;20.540;2024-03-02T08:26:47;9.75;89.82
67586;SHT31;55785;47.946;20.540;2024-03-02T08:29:13;9.73;89.58
67586;SHT31;55785;47.946;20.540;2024-03-02T08:31:38;9.73;90.07
67586;SHT31;55785;47.946;20.540;2024-03-02T08:34:03;9.71;90.02
67586;SHT31;55785;47.946;20.540;2024-03-02T08:36:29;9.67;90.13
67586;SHT31;55785;47.946;20.540;2024-03-02T08:38:54;9.60;89.92
67586;SHT31;55785;47.946;20.540;2024-03-02T08:41:19;9.57;89.92
67586;SHT31;55785;47.946;20.540;2024-03-02T08:43:45;9.57;90.27
67586;SHT31;55785;47.946;20.540;2024-03-02T08:46:10;9.54;90.38
67586;SHT31;55785;47.946;20.540;2024-03-02T08:48:36;9.54;90.76
67586;SHT31;55785;47.946;20.540;2024-03-02T08:51:01;9.51;90.74
67586;SHT31;55785;47.946;20.540;2024-03-02T08:53:26;9.47;90.66
67586;SHT31;55785;47.946;20.540;2024-03-02T08:55:52;9.50;90.68
67586;SHT31;55785;47.946;20.540;2024-03-02T08:58:17;9.47;90.29
67586;SHT31;55785;47.946;20.540;2024-03-02T09:00:43;9.42;90.03
67586;SHT31;55785;47.946;20.540;2024-03-02T09:03:08;9.26;89.94
67586;SHT31;55785;47.946;20.540;2024-03-02T09:05:33;9.22;90.50
67586;SHT31;55785;47.946;20.540;2024-03-02T09:07:59;9.26;90.49
67586;SHT31;55785;47.946;20.540;2024-03-02T09:10:24;9.25;90.99
67586;SHT31;55785;47.946;20.540;2024-03-02T09:12:49;9.29;90.94
67586;SHT31;55785;47.946;20.540;2024-03-02T09:15:15;9.40;91.03
67586;SHT31;55785;47.946;20.540;2024-03-02T09:17:40;9.40;90.99
67586;SHT31;55785;47.946;20.540;2024-03-02T09:20:06;9.42;91.05
67586;SHT31;55785;47.946;20.540;2024-03-02T09:22:31;9.43;91.07
67586;SHT31;55785;47.946;20.540;2024-03-02T09:24:56;9.44;91.00
67586;SHT31;55785;47.946;20.540;2024-03-02T09:27:22;9.50;90.67
67586;SHT31;55785;47.946;20.540;2024-03-02T09:29:47;9.57;90.25
67586;SHT31;55785;47.946;20.540;2024-03-02T09:32:13;9.65;90.38
67586;SHT31;55785;47.946;20.540;2024-03-02T09:34:38;9.69;90.28
67586;SHT31;55785;47.946;20.540;2024-03-02T09:37:04;9.67;90.30
67586;SHT31;55785;47.946;20.540;2024-03-02T09:39:29;9.75;90.29
67586;SHT31;55785;47.946;20.540;2024-03-02T09:41:55;9.80;90.32
67586;SHT31;55785;47.946;20.540;2024-03-02T09:44:20;9.85;90.31
67586;SHT31;55785;47.946;20.540;2024-03-02T09:46:49;9.84;90.39
67586;SHT31;55785;47.946;20.540;2024-03-02T09:49:14;9.91;90.36
67586;SHT31;55785;47.946;20.540;2024-03-02T09:51:40;9.88;90.30
67586;SHT31;55785;47.946;20.540;2024-03-02T09:54:08;9.84;90.36
67586;SHT31;55785;47.946;20.540;2024-03-02T09:56:34;9.82;90.32
67586;SHT31;55785;47.946;20.540;2024-03-02T09:58:59;9.87;90.37
67586;SHT31;55785;47.946;20.540;2024-03-02T10:01:25;9.77;90.31
67586;SHT31;55785;47.946;20.540;2024-03-02T10:03:50;9.78;90.16
67586;SHT31;55785;47.946;20.540;2024-03-02T10:06:19;9.84;90.09
67586;SHT31;55785;47.946;20.540;2024-03-02T10:08:45;9.80;90.25
67586;SHT31;55785;47.946;20.540;2024-03-02T10:11:10;9.81;90.38
67586;SHT31;55785;47.946;20.540;2024-03-02T10:13:35;9.92;90.19
67586;SHT31;55785;47.946;20.540;2024-03-02T10:16:11;9.92;90.07
67586;SHT31;55785;47.946;20.540;2024-03-02T10:18:37;9.97;89.77
67586;SHT31;55785;47.946;20.540;2024-03-02T10:21:13;10.05;89.36
67586;SHT31;55785;47.946;20.540;2024-03-02T10:23:38;10.08;89.57
67586;SHT31;55785;47.946;20.540;2024-03-02T10:26:16;10.09;89.77
67586;SHT31;55785;47.946;20.540;2024-03-02T10:28:46;10.15;89.61
67586;SHT31;55785;47.946;20.540;2024-03-02T10:31:12;10.15;88.52
67586;SHT31;55785;47.946;20.540;2024-03-02T10:33:38;10.23;88.95
67586;SHT31;55785;47.946;20.540;2024-03-02T10:36:04;10.39;89.28
67586;SHT31;55785;47.946;20.540;2024-03-02T10:38:30;10.40;88.77
67586;SHT31;55785;47.946;20.540;2024-03-02T10:40:57;10.40;88.58
67586;SHT31;55785;47.946;20.540;2024-03-02T10:43:23;10.35;87.21
67586;SHT31;55785;47.946;20.540;2024-03-02T10:45:49;10.36;88.01
67586;SHT31;55785;47.946;20.540;2024-03-02T10:48:14;10.40;88.17
67586;SHT31;55785;47.946;20.540;2024-03-02T10:50:40;10.45;88.42
67586;SHT31;55785;47.946;20.540;2024-03-02T10:53:05;10.45;88.10
67586;SHT31;55785;47.946;20.540;2024-03-02T10:55:30;10.50;87.55
67586;SHT31;55785;47.946;20.540;2024-03-02T10:57:58;10.66;87.97
67586;SHT31;55785;47.946;20.540;2024-03-02T11:00:26;10.70;86.95
67586;SHT31;55785;47.946;20.540;2024-03-02T11:03:04;10.79;87.25
67586;SHT31;55785;47.946;20.540;2024-03-02T11:05:33;10.74;87.24
67586;SHT31;55785;47.946;20.540;2024-03-02T11:08:18;10.77;86.78
67586;SHT31;55785;47.946;20.540;2024-03-02T11:10:45;10.76;86.87
67586;SHT31;55785;47.946;20.540;2024-03-02T11:13:13;10.74;85.14
67586;SHT31;55785;47.946;20.540;2024-03-02T11:15:43;10.85;86.72
67586;SHT31;55785;47.946;20.540;2024-03-02T11:18:10;10.87;86.98
67586;SHT31;55785;47.946;20.540;2024-03-02T11:20:38;10.96;86.57
67586;SHT31;55785;47.946;20.540;2024-03-02T11:23:08;10.97;86.37
67586;SHT31;55785;47.946;20.540;2024-03-02T11:25:34;11.06;87.07
67586;SHT31;55785;47.946;20.540;2024-03-02T11:28:02;11.12;87.16
67586;SHT31;55785;47.946;20.540;2024-03-02T11:30:48;11.14;85.87
67586;SHT31;55785;47.946;20.540;2024-03-02T11:33:13;11.11;86.03
67586;SHT31;55785;47.946;20.540;2024-03-02T11:35:43;10.93;85.49
67586;SHT31;55785;47.946;20.540;2024-03-02T11:38:09;10.90;86.12
67586;SHT31;55785;47.946;20.540;2024-03-02T11:40:35;10.84;86.37
67586;SHT31;55785;47.946;20.540;2024-03-02T11:43:00;10.83;86.06
67586;SHT31;55785;47.946;20.540;2024-03-02T11:45:27;10.85;86.92
67586;SHT31;55785;47.946;20.540;2024-03-02T11:47:59;10.83;87.02
67586;SHT31;55785;47.946;20.540;2024-03-02T11:50:34;10.69;86.60
67586;SHT31;55785;47.946;20.540;2024-03-02T11:53:00;10.74;86.37
67586;SHT31;55785;47.946;20.540;2024-03-02T11:55:26;10.70;86.76
67586;SHT31;55785;47.946;20.540;2024-03-02T11:57:54;10.64;86.61
67586;SHT31;55785;47.946;20.540;2024-03-02T12:00:20;10.76;86.54
67586;SHT31;55785;47.946;20.540;2024-03-02T12:03:00;10.84;86.34
67586;SHT31;55785;47.946;20.540;2024-03-02T12:05:26;10.97;86.28
67586;SHT31;55785;47.946;20.540;2024-03-02T12:08:05;10.97;85.17
67586;SHT31;55785;47.946;20.540;2024-03-02T12:10:31;11.01;84.79
67586;SHT31;55785;47.946;20.540;2024-03-02T12:12:57;11.06;85.06
67586;SHT31;55785;47.946;20.540;2024-03-02T12:15:27;11.01;84.66
67586;SHT31;55785;47.946;20.540;2024-03-02T12:17:54;10.97;83.83
67586;SHT31;55785;47.946;20.540;2024-03-02T12:20:20;10.91;83.27
67586;SHT31;55785;47.946;20.540;2024-03-02T12:22:46;11.00;84.05
67586;SHT31;55785;47.946;20.540;2024-03-02T12:25:11;11.01;83.55
67586;SHT31;55785;47.946;20.540;2024-03-02T12:27:38;11.03;83.21
67586;SHT31;55785;47.946;20.540;2024-03-02T12:30:04;11.10;82.87
67586;SHT31;55785;47.946;20.540;2024-03-02T12:32:30;11.14;82.20
67586;SHT31;55785;47.946;20.540;2024-03-02T12:34:55;11.12;82.46
67586;SHT31;55785;47.946;20.540;2024-03-02T12:37:21;11.07;82.19
67586;SHT31;55785;47.946;20.540;2024-03-02T12:39:46;11.14;83.53
67586;SHT31;55785;47.946;20.540;2024-03-02T12:42:11;11.11;82.60
67586;SHT31;55785;47.946;20.540;2024-03-02T12:44:37;11.00;82.47
67586;SHT31;55785;47.946;20.540;2024-03-02T12:47:02;11.04;81.55
67586;SHT31;55785;47.946;20.540;2024-03-02T12:49:28;11.08;81.86
67586;SHT31;55785;47.946;20.540;2024-03-02T12:51:54;11.17;81.81
67586;SHT31;55785;47.946;20.540;2024-03-02T12:54:22;11.27;82.31
67586;SHT31;55785;47.946;20.540;2024-03-02T12:56:47;11.36;82.53
67586;SHT31;55785;47.946;20.540;2024-03-02T12:59:20;11.40;82.82
67586;SHT31;55785;47.946;20.540;2024-03-02T13:01:53;11.39;82.65
67586;SHT31;55785;47.946;20.540;2024-03-02T13:04:25;11.42;82.69
67586;SHT31;55785;47.946;20.540;2024-03-02T13:06:52;11.42;82.67
67586;SHT31;55785;47.946;20.540;2024-03-02T13:09:17;11.45;82.61
67586;SHT31;55785;47.946;20.540;2024-03-02T13:11:43;11.46;82.33
67586;SHT31;55785;47.946;20.540;2024-03-02T13:14:11;11.45;81.75
67586;SHT31;55785;47.946;20.540;2024-03-02T13:16:40;11.48;81.16
67586;SHT31;55785;47.946;20.540;2024-03-02T13:19:10;11.45;78.52
67586;SHT31;55785;47.946;20.540;2024-03-02T13:21:36;11.40;78.16
67586;SHT31;55785;47.946;20.540;2024-03-02T13:24:02;11.42;78.59
67586;SHT31;55785;47.946;20.540;2024-03-02T13:26:27;11.45;79.00
67586;SHT31;55785;47.946;20.540;2024-03-02T13:28:52;11.36;75.81
67586;SHT31;55785;47.946;20.540;2024-03-02T13:31:18;11.36;76.33
67586;SHT31;55785;47.946;20.540;2024-03-02T13:33:43;11.31;76.92
67586;SHT31;55785;47.946;20.540;2024-03-02T13:36:09;11.34;77.13
67586;SHT31;55785;47.946;20.540;2024-03-02T13:38:34;11.35;77.99
67586;SHT31;55785;47.946;20.540;2024-03-02T13:40:59;11.35;76.83
67586;SHT31;55785;47.946;20.540;2024-03-02T13:43:26;11.36;77.33
67586;SHT31;55785;47.946;20.540;2024-03-02T13:45:52;11.38;77.99
67586;SHT31;55785;47.946;20.540;2024-03-02T13:48:17;11.32;78.79
67586;SHT31;55785;47.946;20.540;2024-03-02T13:50:42;11.32;78.88
67586;SHT31;55785;47.946;20.540;2024-03-02T13:53:08;11.25;78.41
67586;SHT31;55785;47.946;20.540;2024-03-02T13:55:33;11.28;79.02
67586;SHT31;55785;47.946;20.540;2024-03-02T13:57:59;11.31;78.59
67586;SHT31;55785;47.946;20.540;2024-03-02T14:00:24;11.28;78.70
67586;SHT31;55785;47.946;20.540;2024-03-02T14:02:49;11.24;79.36
67586;SHT31;55785;47.946;20.540;2024-03-02T14:05:15;11.19;79.09
67586;SHT31;55785;47.946;20.540;2024-03-02T14:07:41;11.17;79.84
67586;SHT31;55785;47.946;20.540;2024-03-02T14:10:07;11.19;79.83
67586;SHT31;55785;47.946;20.540;2024-03-02T14:12:32;11.19;79.59
67586;SHT31;55785;47.946;20.540;2024-03-02T14:14:58;11.21;79.29
67586;SHT31;55785;47.946;20.540;2024-03-02T14:17:24;11.29;80.16
67586;SHT31;55785;47.946;20.540;2024-03-02T14:19:49;11.22;79.05
67586;SHT31;55785;47.946;20.540;2024-03-02T14:22:15;11.15;79.22
67586;SHT31;55785;47.946;20.540;2024-03-02T14:24:40;11.10;79.39
67586;SHT31;55785;47.946;20.540;2024-03-02T14:27:05;11.10;80.55
67586;SHT31;55785;47.946;20.540;2024-03-02T14:29:30;11.12;80.95
67586;SHT31;55785;47.946;20.540;2024-03-02T14:31:56;11.11;80.83
67586;SHT31;55785;47.946;20.540;2024-03-02T14:34:21;11.12;79.80
67586;SHT31;55785;47.946;20.540;2024-03-02T14:36:46;11.10;80.07
67586;SHT31;55785;47.946;20.540;2024-03-02T14:39:12;11.08;79.54
67586;SHT31;55785;47.946;20.540;2024-03-02T14:41:37;11.08;79.48
67586;SHT31;55785;47.946;20.540;2024-03-02T14:44:03;11.08;79.73
67586;SHT31;55785;47.946;20.540;2024-03-02T14:46:29;11.10;79.98
67586;SHT31;55785;47.946;20.540;2024-03-02T14:48:54;11.11;79.77
67586;SHT31;55785;47.946;20.540;2024-03-02T14:51:20;11.11;80.14
67586;SHT31;55785;47.946;20.540;2024-03-02T14:53:45;11.10;79.39
67586;SHT31;55785;47.946;20.540;2024-03-02T14:56:11;11.06;78.97
67586;SHT31;55785;47.946;20.540;2024-03-02T14:58:36;11.04;79.34
67586;SHT31;55785;47.946;20.540;2024-03-02T15:01:02;11.01;80.01
67586;SHT31;55785;47.946;20.540;2024-03-02T15:03:28;10.98;80.53
67586;SHT31;55785;47.946;20.540;2024-03-02T15:05:53;10.98;80.99
67586;SHT31;55785;47.946;20.540;2024-03-02T15:08:19;10.97;80.75
67586;SHT31;55785;47.946;20.540;2024-03-02T15:10:44;11.00;81.53
67586;SHT31;55785;47.946;20.540;2024-03-02T15:13:09;10.98;81.59
67586;SHT31;55785;47.946;20.540;2024-03-02T15:15:35;10.97;81.40
67586;SHT31;55785;47.946;20.540;2024-03-02T15:18:01;10.98;80.76